createdAt,value
2018-07-03T00:01:42.196Z,74.73
2018-07-03T00:04:12.532Z,74.70
2018-07-03T00:06:42.292Z,75.70
2018-07-03T00:09:12.247Z,76.19
2018-07-03T00:11:42.380Z,76.92
2018-07-03T00:14:12.273Z,76.07
2018-07-03T00:16:47.511Z,76.72
2018-07-03T00:19:17.338Z,76.44
2018-07-03T00:21:47.570Z,76.90
2018-07-03T00:24:17.257Z,77.26
2018-07-03T00:26:47.408Z,76.71
2018-07-03T00:29:17.089Z,76.87
2018-07-03T00:31:46.734Z,77.53
2018-07-03T00:34:16.939Z,77.34
2018-07-03T00:36:46.722Z,77.90
2018-07-03T00:39:16.547Z,77.84
2018-07-03T00:41:46.451Z,77.81
2018-07-03T00:44:16.396Z,77.71
2018-07-03T00:46:46.519Z,77.79
2018-07-03T00:49:16.326Z,78.07
2018-07-03T00:51:46.515Z,78.30
2018-07-03T00:54:16.594Z,77.49
2018-07-03T00:56:46.535Z,78.06
2018-07-03T00:59:16.437Z,78.07
2018-07-03T01:01:46.715Z,78.41
2018-07-03T01:04:16.836Z,78.14
2018-07-03T01:06:46.553Z,78.37
2018-07-03T01:09:16.379Z,77.68
2018-07-03T01:11:46.507Z,77.80
2018-07-03T01:14:16.233Z,77.54
2018-07-03T01:16:46.474Z,77.75
2018-07-03T01:19:16.182Z,77.58
2018-07-03T01:21:46.834Z,77.79
2018-07-03T01:24:16.884Z,77.24
2018-07-03T01:26:46.478Z,76.25
2018-07-03T01:29:16.163Z,76.30
2018-07-03T01:31:45.723Z,76.40
2018-07-03T01:34:15.505Z,76.57
2018-07-03T01:36:45.415Z,76.27
2018-07-03T01:39:15.291Z,76.54
2018-07-03T01:41:45.032Z,76.09
2018-07-03T01:44:15.803Z,76.14
2018-07-03T01:46:45.805Z,75.41
2018-07-03T01:49:15.499Z,75.90
2018-07-03T01:51:45.494Z,76.37
2018-07-03T01:54:15.656Z,76.41
2018-07-03T01:56:45.311Z,76.18
2018-07-03T01:59:14.883Z,76.26
2018-07-03T02:01:44.582Z,75.93
2018-07-03T02:04:14.538Z,76.58
2018-07-03T02:06:44.465Z,77.00
2018-07-03T02:09:14.973Z,77.56
2018-07-03T02:11:44.758Z,78.85
2018-07-03T02:14:14.797Z,78.49
2018-07-03T02:16:44.883Z,79.11
2018-07-03T02:19:15.038Z,79.60
2018-07-03T02:21:44.898Z,78.33
2018-07-03T02:24:14.544Z,77.63
2018-07-03T02:26:44.510Z,77.79
2018-07-03T02:29:14.055Z,78.01
2018-07-03T02:31:44.203Z,77.75
2018-07-03T02:34:13.837Z,78.08
2018-07-03T02:36:43.715Z,78.38
2018-07-03T02:39:13.958Z,78.61
2018-07-03T02:41:43.644Z,78.62
2018-07-03T02:44:13.703Z,78.80
2018-07-03T02:46:44.058Z,78.62
2018-07-03T02:49:13.923Z,79.80
2018-07-03T02:51:43.962Z,80.25
2018-07-03T02:54:13.518Z,80.59
2018-07-03T02:56:43.267Z,80.31
2018-07-03T02:59:13.190Z,80.35
2018-07-03T03:01:42.975Z,80.20
2018-07-03T03:04:13.426Z,80.42
2018-07-03T03:06:43.326Z,80.33
2018-07-03T03:09:14.072Z,80.40
2018-07-03T03:11:43.862Z,80.23
2018-07-03T03:14:14.363Z,79.92
2018-07-03T03:16:44.100Z,79.80
2018-07-03T03:19:14.419Z,79.53
2018-07-03T03:21:44.143Z,79.70
2018-07-03T03:24:13.889Z,79.36
2018-07-03T03:26:43.463Z,79.29
2018-07-03T03:29:13.110Z,79.69
2018-07-03T03:31:43.025Z,79.79
2018-07-03T03:34:13.009Z,79.76
2018-07-03T03:36:42.747Z,79.93
2018-07-03T03:39:12.777Z,79.90
2018-07-03T03:41:42.491Z,80.09
2018-07-03T03:44:12.474Z,79.74
2018-07-03T03:46:42.052Z,80.13
2018-07-03T03:49:11.693Z,80.37
2018-07-03T03:51:41.999Z,80.37
2018-07-03T03:54:11.672Z,80.47
2018-07-03T03:56:41.187Z,80.42
2018-07-03T03:59:11.027Z,80.14
2018-07-03T04:01:41.111Z,79.75
2018-07-03T04:04:11.090Z,79.48
2018-07-03T04:06:40.975Z,78.64
2018-07-03T04:09:11.831Z,78.36
2018-07-03T04:11:41.735Z,78.15
2018-07-03T04:14:11.632Z,78.24
2018-07-03T04:16:41.779Z,77.99
2018-07-03T04:19:11.632Z,77.45
2018-07-03T04:21:41.203Z,77.26
2018-07-03T04:24:10.727Z,76.74
2018-07-03T04:26:40.332Z,76.68
2018-07-03T04:29:10.348Z,76.12
2018-07-03T04:31:40.241Z,75.45
2018-07-03T04:34:09.761Z,75.14
2018-07-03T04:36:40.489Z,74.65
2018-07-03T04:39:10.967Z,74.31
2018-07-03T04:41:41.357Z,73.78
2018-07-03T04:44:11.045Z,73.60
2018-07-03T04:46:40.899Z,73.09
2018-07-03T04:49:10.915Z,72.40
2018-07-03T04:51:40.468Z,71.85
2018-07-03T04:54:10.017Z,71.30
2018-07-03T04:56:39.710Z,70.84
2018-07-03T04:59:09.420Z,70.22
2018-07-03T05:01:39.003Z,69.74
2018-07-03T05:04:08.823Z,68.92
2018-07-03T05:06:38.526Z,68.86
2018-07-03T05:09:10.580Z,68.04
2018-07-03T05:11:40.563Z,67.77
2018-07-03T05:14:10.551Z,67.83
2018-07-03T05:16:40.591Z,67.01
2018-07-03T05:19:10.329Z,66.36
2018-07-03T05:21:39.926Z,65.94
2018-07-03T05:24:09.896Z,65.87
2018-07-03T05:26:39.402Z,65.55
2018-07-03T05:29:09.145Z,65.40
2018-07-03T05:31:39.677Z,64.19
2018-07-03T05:34:09.666Z,64.94
2018-07-03T05:36:39.616Z,63.87
2018-07-03T05:39:11.340Z,64.46
2018-07-03T05:41:41.579Z,63.06
2018-07-03T05:44:11.142Z,62.86
2018-07-03T05:46:40.781Z,62.35
2018-07-03T05:49:11.178Z,62.08
2018-07-03T05:51:40.787Z,62.93
2018-07-03T05:54:10.911Z,62.99
2018-07-03T05:56:40.216Z,63.21
2018-07-03T05:59:09.741Z,62.58
2018-07-03T06:01:39.890Z,62.44
2018-07-03T06:04:09.578Z,62.05
2018-07-03T06:06:39.585Z,61.96
2018-07-03T06:09:10.928Z,61.18
2018-07-03T06:11:40.737Z,61.75
2018-07-03T06:14:10.905Z,61.65
2018-07-03T06:16:40.808Z,60.96
2018-07-03T06:19:10.904Z,60.69
2018-07-03T06:21:41.015Z,60.04
2018-07-03T06:24:10.700Z,59.01
2018-07-03T06:26:40.976Z,58.80
2018-07-03T06:29:10.898Z,59.09
2018-07-03T06:31:40.999Z,58.58
2018-07-03T06:34:10.886Z,57.72
2018-07-03T06:36:40.562Z,57.27
2018-07-03T06:39:12.654Z,57.54
2018-07-03T06:41:42.651Z,57.05
2018-07-03T06:44:12.340Z,56.64
2018-07-03T06:46:42.091Z,56.83
2018-07-03T06:49:11.846Z,55.80
2018-07-03T06:51:41.567Z,55.72
2018-07-03T06:54:11.234Z,55.30
2018-07-03T06:56:41.406Z,55.28
2018-07-03T06:59:11.035Z,55.39
2018-07-03T07:01:40.711Z,55.18
2018-07-03T07:04:10.802Z,56.32
2018-07-03T07:06:40.394Z,56.20
2018-07-03T07:09:11.001Z,54.71
2018-07-03T07:11:40.716Z,55.13
2018-07-03T07:14:10.367Z,54.46
2018-07-03T07:16:40.138Z,54.62
2018-07-03T07:19:09.758Z,54.32
2018-07-03T07:21:39.430Z,54.36
2018-07-03T07:24:09.000Z,53.65
2018-07-03T07:26:38.985Z,54.67
2018-07-03T07:29:09.017Z,54.42
2018-07-03T07:31:39.218Z,54.97
2018-07-03T07:34:08.931Z,54.72
2018-07-03T07:36:39.043Z,54.75
2018-07-03T07:39:11.168Z,55.71
2018-07-03T07:41:41.950Z,54.32
2018-07-03T07:44:11.814Z,54.63
2018-07-03T07:46:41.475Z,55.15
2018-07-03T07:49:11.600Z,53.81
2018-07-03T07:51:41.175Z,54.72
2018-07-03T07:54:10.962Z,53.72
2018-07-03T07:56:40.876Z,52.64
2018-07-03T07:59:10.990Z,51.83
2018-07-03T08:01:41.216Z,52.54
2018-07-03T08:04:11.486Z,52.27
2018-07-03T08:06:41.364Z,51.68
2018-07-03T08:09:11.822Z,52.08
2018-07-03T08:11:41.841Z,51.38
2018-07-03T08:14:11.870Z,52.11
2018-07-03T08:16:41.624Z,51.19
2018-07-03T08:19:11.223Z,50.01
2018-07-03T08:21:41.147Z,50.16
2018-07-03T08:24:10.839Z,50.31
2018-07-03T08:26:40.961Z,50.00
2018-07-03T08:29:10.576Z,49.32
2018-07-03T08:31:40.156Z,50.92
2018-07-03T08:34:10.381Z,49.67
2018-07-03T08:36:40.166Z,49.63
2018-07-03T08:39:11.770Z,50.24
2018-07-03T08:41:41.643Z,50.10
2018-07-03T08:44:11.625Z,49.74
2018-07-03T08:46:41.217Z,49.70
2018-07-03T08:49:10.798Z,49.39
2018-07-03T08:51:40.845Z,49.51
2018-07-03T08:54:10.799Z,49.35
2018-07-03T08:56:40.658Z,50.40
2018-07-03T08:59:10.814Z,48.94
2018-07-03T09:01:40.558Z,48.28
2018-07-03T09:04:10.596Z,47.92
2018-07-03T09:06:40.382Z,48.10
2018-07-03T09:09:11.572Z,47.30
2018-07-03T09:11:41.642Z,47.75
2018-07-03T09:14:11.301Z,47.71
2018-07-03T09:16:40.906Z,47.33
2018-07-03T09:19:10.514Z,46.35
2018-07-03T09:21:40.064Z,45.84
2018-07-03T09:24:10.307Z,43.24
2018-07-03T09:26:40.262Z,42.86
2018-07-03T09:29:10.451Z,43.46
2018-07-03T09:31:40.769Z,43.08
2018-07-03T09:34:10.687Z,39.20
2018-07-03T09:36:40.608Z,39.94
2018-07-03T09:39:11.435Z,40.21
2018-07-03T09:41:41.402Z,39.79
2018-07-03T09:44:11.089Z,40.89
2018-07-03T09:46:41.120Z,41.84
2018-07-03T09:49:10.839Z,41.16
2018-07-03T09:51:40.708Z,40.32
2018-07-03T09:54:10.758Z,41.52
2018-07-03T09:56:40.415Z,40.52
2018-07-03T09:59:10.917Z,39.09
2018-07-03T10:01:40.705Z,40.34
2018-07-03T10:04:11.001Z,38.99
2018-07-03T10:06:40.963Z,39.41
2018-07-03T10:09:12.586Z,37.55
2018-07-03T10:11:42.263Z,36.89
2018-07-03T10:14:12.247Z,36.10
2018-07-03T10:16:41.892Z,37.03
2018-07-03T10:19:11.468Z,37.79
2018-07-03T10:21:41.654Z,36.97
2018-07-03T10:24:11.223Z,35.78
2018-07-03T10:26:41.063Z,35.95
2018-07-03T10:29:11.024Z,34.60
2018-07-03T10:31:40.925Z,34.75
2018-07-03T10:34:10.706Z,34.14
2018-07-03T10:36:40.635Z,35.03
2018-07-03T10:39:12.060Z,35.87
2018-07-03T10:41:42.301Z,33.92
2018-07-03T10:44:11.784Z,33.80
2018-07-03T10:46:41.821Z,33.92
2018-07-03T10:49:11.432Z,34.45
2018-07-03T10:51:41.399Z,33.60
2018-07-03T10:54:11.050Z,32.78
2018-07-03T10:56:40.771Z,33.05
2018-07-03T10:59:10.550Z,33.88
2018-07-03T11:01:40.558Z,32.80
2018-07-03T11:04:10.755Z,32.16
2018-07-03T11:06:40.644Z,33.10
2018-07-03T11:09:12.263Z,32.03
2018-07-03T11:11:42.007Z,32.78
2018-07-03T11:14:11.661Z,32.44
2018-07-03T11:16:41.631Z,31.21
2018-07-03T11:19:11.220Z,33.78
2018-07-03T11:21:41.681Z,31.73
2018-07-03T11:24:11.344Z,31.50
2018-07-03T11:26:41.075Z,30.78
2018-07-03T11:29:11.110Z,30.50
2018-07-03T11:31:41.075Z,30.61
2018-07-03T11:34:10.775Z,30.57
2018-07-03T11:36:40.518Z,30.17
2018-07-03T11:39:10.650Z,28.93
2018-07-03T11:41:41.003Z,29.02
2018-07-03T11:44:10.584Z,28.81
2018-07-03T11:46:40.266Z,28.65
2018-07-03T11:49:10.034Z,27.92
2018-07-03T11:51:39.924Z,28.13
2018-07-03T11:54:09.775Z,27.67
2018-07-03T11:56:40.007Z,27.35
2018-07-03T11:59:09.992Z,26.52
2018-07-03T12:01:40.180Z,26.18
2018-07-03T12:04:09.922Z,24.54
2018-07-03T12:06:40.055Z,24.37
2018-07-03T12:09:10.707Z,25.89
2018-07-03T12:11:41.443Z,24.87
2018-07-03T12:14:11.475Z,25.90
2018-07-03T12:16:41.508Z,25.06
2018-07-03T12:19:11.210Z,26.03
2018-07-03T12:21:40.864Z,26.18
2018-07-03T12:24:11.223Z,25.85
2018-07-03T12:26:41.033Z,25.94
2018-07-03T12:29:11.303Z,26.50
2018-07-03T12:31:41.137Z,25.50
2018-07-03T12:34:10.833Z,24.52
2018-07-03T12:36:40.813Z,24.83
2018-07-03T12:39:11.887Z,24.80
2018-07-03T12:41:41.474Z,25.45
2018-07-03T12:44:11.113Z,23.15
2018-07-03T12:46:40.677Z,24.10
2018-07-03T12:49:10.333Z,25.04
2018-07-03T12:51:40.495Z,24.60
2018-07-03T12:54:10.076Z,24.98
2018-07-03T12:56:39.886Z,24.05
2018-07-03T12:59:09.747Z,24.29
2018-07-03T13:01:39.418Z,23.87
2018-07-03T13:04:09.338Z,23.17
2018-07-03T13:06:39.424Z,22.57
2018-07-03T13:09:10.838Z,21.88
2018-07-03T13:11:40.976Z,21.58
2018-07-03T13:14:10.616Z,21.44
2018-07-03T13:16:40.317Z,21.44
2018-07-03T13:19:10.490Z,21.23
2018-07-03T13:21:40.119Z,20.66
2018-07-03T13:24:10.221Z,20.18
2018-07-03T13:26:39.963Z,21.25
2018-07-03T13:29:10.117Z,21.45
2018-07-03T13:31:40.101Z,21.46
2018-07-03T13:34:10.234Z,23.23
2018-07-03T13:36:40.234Z,22.06
2018-07-03T13:39:11.114Z,22.17
2018-07-03T13:41:40.731Z,22.36
2018-07-03T13:44:10.419Z,21.75
2018-07-03T13:46:40.708Z,21.85
2018-07-03T13:49:10.467Z,21.17
2018-07-03T13:51:40.295Z,21.13
2018-07-03T13:54:10.630Z,21.19
2018-07-03T13:56:40.796Z,21.34
2018-07-03T13:59:11.289Z,20.51
2018-07-03T14:01:41.075Z,20.42
2018-07-03T14:04:10.897Z,20.23
2018-07-03T14:06:40.581Z,20.36
2018-07-03T14:09:10.431Z,20.76
2018-07-03T14:11:40.788Z,20.98
2018-07-03T14:14:10.647Z,20.40
2018-07-03T14:16:40.806Z,20.03
2018-07-03T14:19:10.502Z,19.42
2018-07-03T14:21:40.345Z,19.53
2018-07-03T14:24:10.068Z,19.52
2018-07-03T14:26:39.728Z,20.88
2018-07-03T14:29:10.395Z,20.63
2018-07-03T14:31:40.177Z,21.23
2018-07-03T14:34:09.746Z,22.04
2018-07-03T14:36:39.599Z,21.21
2018-07-03T14:39:12.161Z,21.02
2018-07-03T14:41:42.359Z,20.29
2018-07-03T14:44:12.316Z,20.41
2018-07-03T14:46:42.549Z,19.39
2018-07-03T14:49:12.224Z,19.34
2018-07-03T14:51:41.785Z,20.36
2018-07-03T14:54:11.476Z,19.90
2018-07-03T14:56:41.374Z,19.49
2018-07-03T14:59:11.491Z,19.57
2018-07-03T15:01:41.540Z,21.05
2018-07-03T15:04:11.127Z,19.65
2018-07-03T15:06:40.994Z,19.83
2018-07-03T15:09:12.320Z,20.24
2018-07-03T15:11:42.442Z,19.41
2018-07-03T15:14:12.207Z,18.87
2018-07-03T15:16:42.223Z,19.22
2018-07-03T15:19:16.732Z,18.67
2018-07-03T15:21:47.088Z,19.36
2018-07-03T15:24:16.879Z,18.69
2018-07-03T15:26:47.040Z,19.06
2018-07-03T15:29:16.927Z,18.57
2018-07-03T15:31:46.983Z,18.08
2018-07-03T15:34:16.531Z,17.81
2018-07-03T15:36:46.788Z,18.31
2018-07-03T15:39:16.603Z,18.36
2018-07-03T15:41:46.800Z,18.28
2018-07-03T15:44:28.111Z,18.36
2018-07-03T15:46:58.473Z,17.75
2018-07-03T15:49:28.153Z,19.15
2018-07-03T15:51:57.851Z,19.90
2018-07-03T15:54:28.115Z,20.19
2018-07-03T15:56:57.683Z,20.76
2018-07-03T15:59:27.339Z,21.66
2018-07-03T16:01:57.624Z,22.42
2018-07-03T16:05:06.162Z,24.22
2018-07-03T16:07:45.591Z,26.00
2018-07-03T16:10:15.386Z,27.50
2018-07-03T16:12:44.991Z,28.33
2018-07-03T16:15:15.247Z,29.56
2018-07-03T16:17:45.109Z,29.68
2018-07-03T16:20:20.274Z,30.77
2018-07-03T16:22:50.206Z,32.10
2018-07-03T16:25:20.378Z,32.24
2018-07-03T16:27:50.151Z,33.45
2018-07-03T16:30:19.820Z,34.27
2018-07-03T16:32:49.784Z,34.66
2018-07-03T16:35:19.335Z,35.67
2018-07-03T16:37:49.655Z,36.20
2018-07-03T16:40:19.534Z,36.43
2018-07-03T16:42:49.384Z,36.44
2018-07-03T16:45:19.613Z,36.73
2018-07-03T16:47:49.450Z,36.80
2018-07-03T16:50:19.660Z,36.93
2018-07-03T16:52:49.776Z,36.74
2018-07-03T16:55:19.678Z,37.28
2018-07-03T16:57:50.160Z,37.29
2018-07-03T17:00:29.220Z,37.07
2018-07-03T17:02:59.275Z,37.14
2018-07-03T17:05:29.284Z,37.44
2018-07-03T17:07:59.523Z,36.83
2018-07-03T17:10:29.332Z,37.06
2018-07-03T17:12:59.394Z,37.44
2018-07-03T17:15:29.803Z,37.29
2018-07-03T17:17:59.699Z,37.44
2018-07-03T17:20:29.409Z,37.34
2018-07-03T17:22:59.146Z,37.77
2018-07-03T17:25:28.847Z,38.82
2018-07-03T17:27:58.597Z,38.23
2018-07-03T17:30:28.226Z,39.12
2018-07-03T17:32:57.815Z,39.19
2018-07-03T17:35:28.185Z,39.01
2018-07-03T17:37:57.798Z,39.89
2018-07-03T17:40:39.157Z,39.71
2018-07-03T17:43:32.044Z,41.16
2018-07-03T17:46:07.532Z,42.17
2018-07-03T17:48:37.581Z,42.10
2018-07-03T17:51:07.309Z,44.53
2018-07-03T17:53:37.096Z,43.43
2018-07-03T17:56:06.948Z,42.33
2018-07-03T17:58:36.524Z,43.43
2018-07-03T18:01:06.347Z,43.61
2018-07-03T18:03:35.926Z,43.83
2018-07-03T18:06:05.984Z,43.86
2018-07-03T18:08:35.489Z,44.88
2018-07-03T18:11:05.602Z,45.21
2018-07-03T18:13:35.321Z,45.78
2018-07-03T18:16:05.048Z,45.64
2018-07-03T18:18:34.750Z,45.39
2018-07-03T18:21:04.880Z,45.82
2018-07-03T18:23:34.553Z,46.56
2018-07-03T18:26:04.509Z,46.01
2018-07-03T18:28:34.394Z,46.81
2018-07-03T18:31:04.395Z,47.31
2018-07-03T18:33:34.135Z,47.20
2018-07-03T18:36:04.246Z,47.36
2018-07-03T18:38:34.070Z,48.31
2018-07-03T18:41:03.996Z,49.66
2018-07-03T18:43:33.646Z,49.37
2018-07-03T18:46:03.589Z,50.14
2018-07-03T18:48:33.594Z,49.19
2018-07-03T18:51:03.829Z,49.67
2018-07-03T18:53:33.793Z,49.62
2018-07-03T18:56:03.589Z,49.81
2018-07-03T18:58:33.409Z,49.34
2018-07-03T19:01:03.143Z,49.46
2018-07-03T19:03:33.248Z,49.86
2018-07-03T19:06:03.050Z,50.59
2018-07-03T19:08:33.146Z,51.53
2018-07-03T19:11:03.399Z,51.06
2018-07-03T19:13:33.176Z,51.48
2018-07-03T19:16:03.304Z,52.40
2018-07-03T19:18:33.030Z,52.21
2018-07-03T19:21:03.173Z,52.76
2018-07-03T19:23:33.134Z,52.67
2018-07-03T19:26:02.770Z,52.64
2018-07-03T19:28:32.399Z,53.35
2018-07-03T19:31:01.967Z,53.84
2018-07-03T19:33:32.023Z,53.98
2018-07-03T19:36:01.848Z,53.90
2018-07-03T19:38:31.726Z,55.05
2018-07-03T19:41:01.654Z,54.32
2018-07-03T19:43:32.721Z,54.43
2018-07-03T19:46:02.757Z,55.42
2018-07-03T19:48:33.211Z,55.61
2018-07-03T19:51:02.946Z,55.70
2018-07-03T19:53:32.707Z,56.17
2018-07-03T19:56:02.659Z,56.23
2018-07-03T19:58:32.278Z,57.05
2018-07-03T20:01:01.927Z,58.84
2018-07-03T20:03:31.635Z,59.02
2018-07-03T20:06:02.448Z,59.43
2018-07-03T20:08:32.618Z,60.14
2018-07-03T20:11:02.479Z,59.41
2018-07-03T20:13:32.230Z,59.39
2018-07-03T20:16:02.100Z,59.32
2018-07-03T20:18:31.997Z,59.43
2018-07-03T20:21:02.325Z,59.54
2018-07-03T20:23:32.089Z,59.54
2018-07-03T20:26:01.973Z,60.03
2018-07-03T20:28:31.574Z,60.18
2018-07-03T20:31:01.324Z,59.93
2018-07-03T20:33:31.431Z,61.00
2018-07-03T20:36:00.914Z,61.19
2018-07-03T20:38:30.518Z,61.12
2018-07-03T20:41:04.482Z,60.59
2018-07-03T20:43:36.588Z,60.66
2018-07-03T20:46:07.363Z,61.06
2018-07-03T20:48:37.078Z,60.95
2018-07-03T20:51:07.550Z,61.33
2018-07-03T20:53:37.404Z,62.03
2018-07-03T20:56:07.703Z,62.83
2018-07-03T20:58:37.229Z,63.29
2018-07-03T21:01:07.096Z,62.84
2018-07-03T21:03:36.903Z,64.27
2018-07-03T21:06:06.875Z,64.80
2018-07-03T21:08:36.587Z,65.04
2018-07-03T21:11:06.923Z,65.63
2018-07-03T21:13:36.603Z,66.06
2018-07-03T21:16:06.200Z,66.86
2018-07-03T21:18:35.955Z,67.19
2018-07-03T21:21:05.456Z,68.46
2018-07-03T21:23:35.262Z,67.87
2018-07-03T21:26:05.188Z,68.27
2018-07-03T21:28:34.715Z,68.00
2018-07-03T21:31:04.827Z,69.29
2018-07-03T21:33:34.724Z,68.13
2018-07-03T21:36:04.379Z,68.10
2018-07-03T21:38:34.703Z,68.88
2018-07-03T21:41:04.672Z,69.28
2018-07-03T21:43:34.816Z,69.07
2018-07-03T21:46:04.806Z,69.86
2018-07-03T21:48:35.096Z,69.93
2018-07-03T21:51:04.942Z,69.63
2018-07-03T21:53:34.508Z,69.23
2018-07-03T21:56:04.434Z,68.87
2018-07-03T21:58:34.050Z,69.90
2018-07-03T22:01:03.812Z,69.29
2018-07-03T22:03:34.186Z,69.58
2018-07-03T22:06:04.149Z,70.13
2018-07-03T22:08:34.243Z,70.24
2018-07-03T22:11:04.650Z,70.36
2018-07-03T22:13:34.452Z,70.95
2018-07-03T22:16:04.414Z,71.59
2018-07-03T22:18:34.111Z,70.63
2018-07-03T22:21:03.844Z,70.72
2018-07-03T22:23:33.982Z,70.46
2018-07-03T22:26:03.538Z,71.55
2018-07-03T22:28:33.158Z,71.20
2018-07-03T22:31:03.009Z,71.44
2018-07-03T22:33:32.606Z,71.56
2018-07-03T22:36:02.374Z,71.26
2018-07-03T22:38:32.766Z,72.22
2018-07-03T22:41:02.385Z,72.10
2018-07-03T22:43:32.131Z,72.89
2018-07-03T22:46:02.159Z,72.73
2018-07-03T22:48:31.984Z,72.61
2018-07-03T22:51:01.630Z,72.36
2018-07-03T22:53:31.553Z,71.58
2018-07-03T22:56:01.139Z,71.55
2018-07-03T22:58:31.135Z,71.30
2018-07-03T23:01:00.896Z,70.93
2018-07-03T23:03:30.998Z,70.90
2018-07-03T23:06:00.870Z,70.36
2018-07-03T23:08:31.058Z,70.76
2018-07-03T23:11:01.027Z,71.70
2018-07-03T23:13:31.356Z,71.12
2018-07-03T23:16:01.099Z,72.60
2018-07-03T23:18:31.287Z,71.95
2018-07-03T23:21:00.866Z,71.85
2018-07-03T23:23:30.393Z,72.56
2018-07-03T23:26:00.297Z,72.40
2018-07-03T23:28:30.051Z,72.95
2018-07-03T23:30:59.730Z,73.51
2018-07-03T23:33:29.598Z,74.05
2018-07-03T23:35:59.359Z,74.11
2018-07-03T23:38:29.134Z,74.25
2018-07-03T23:40:59.461Z,73.89
2018-07-03T23:43:29.310Z,73.74
2018-07-03T23:45:58.702Z,73.58
2018-07-03T23:48:39.504Z,74.08
2018-07-03T23:51:27.796Z,74.35
2018-07-03T23:54:14.591Z,74.55
2018-07-03T23:57:01.353Z,74.46
2018-07-03T23:59:48.596Z,74.17
